createdAt,value
2023-11-17T00:00:16.974Z,995.99
2023-11-17T00:01:16.936Z,995.99
2023-11-17T00:02:16.940Z,995.96
2023-11-17T00:03:17.002Z,995.99
2023-11-17T00:04:17.023Z,996.01
2023-11-17T00:05:16.887Z,996.02
2023-11-17T00:06:16.883Z,996.05
2023-11-17T00:07:16.891Z,996.04
2023-11-17T00:08:16.863Z,996.06
2023-11-17T00:09:16.814Z,996.06
2023-11-17T00:10:16.890Z,996.05
2023-11-17T00:11:16.809Z,996.00
2023-11-17T00:12:16.796Z,996.05
2023-11-17T00:13:16.832Z,996.02
2023-11-17T00:14:16.764Z,996.00
2023-11-17T00:15:16.786Z,996.03
2023-11-17T00:16:16.785Z,996.05
2023-11-17T00:17:16.739Z,996.12
2023-11-17T00:18:16.719Z,996.12
2023-11-17T00:19:16.754Z,996.14
2023-11-17T00:20:16.725Z,996.14
2023-11-17T00:21:16.674Z,996.23
2023-11-17T00:22:16.746Z,996.21
2023-11-17T00:23:16.652Z,996.22
2023-11-17T00:24:16.633Z,996.24
2023-11-17T00:25:16.636Z,996.24
2023-11-17T00:26:16.595Z,996.26
2023-11-17T00:27:16.608Z,996.25
2023-11-17T00:28:16.618Z,996.25
2023-11-17T00:29:16.546Z,996.31
2023-11-17T00:30:16.563Z,996.29
2023-11-17T00:31:16.582Z,996.34
2023-11-17T00:32:16.544Z,996.35
2023-11-17T00:33:16.518Z,996.37
2023-11-17T00:34:16.575Z,996.43
2023-11-17T00:35:16.497Z,996.40
2023-11-17T00:36:16.484Z,996.42
2023-11-17T00:37:16.449Z,996.47
2023-11-17T00:38:16.439Z,996.48
2023-11-17T00:39:16.445Z,996.53
2023-11-17T00:40:16.480Z,996.51
2023-11-17T00:41:24.407Z,996.50
2023-11-17T00:42:17.383Z,996.56
2023-11-17T00:43:16.402Z,996.63
2023-11-17T00:44:16.374Z,996.56
2023-11-17T00:45:16.362Z,996.61
2023-11-17T00:46:16.748Z,996.65
2023-11-17T00:47:16.411Z,996.67
2023-11-17T00:48:16.346Z,996.75
2023-11-17T00:49:16.355Z,996.73
2023-11-17T00:50:16.307Z,996.77
2023-11-17T00:51:16.284Z,996.78
2023-11-17T00:52:16.285Z,996.77
2023-11-17T00:53:16.252Z,996.78
2023-11-17T00:54:16.234Z,996.78
2023-11-17T00:55:16.257Z,996.77
2023-11-17T00:56:16.185Z,996.78
2023-11-17T00:57:16.198Z,996.72
2023-11-17T00:58:16.235Z,996.75
2023-11-17T00:59:16.169Z,996.76
2023-11-17T01:00:16.191Z,996.78
2023-11-17T01:01:16.226Z,996.76
2023-11-17T01:02:16.255Z,996.79
2023-11-17T01:03:16.167Z,996.82
2023-11-17T01:04:16.127Z,996.77
2023-11-17T01:05:16.098Z,996.77
2023-11-17T01:06:16.092Z,996.81
2023-11-17T01:07:16.107Z,996.79
2023-11-17T01:08:16.070Z,996.84
2023-11-17T01:09:16.053Z,996.85
2023-11-17T01:10:16.039Z,996.85
2023-11-17T01:11:16.027Z,996.86
2023-11-17T01:12:16.109Z,996.86
2023-11-17T01:13:16.139Z,996.89
2023-11-17T01:14:15.957Z,996.87
2023-11-17T01:15:15.987Z,996.83
2023-11-17T01:16:15.992Z,996.87
2023-11-17T01:17:15.966Z,996.84
2023-11-17T01:18:15.996Z,996.80
2023-11-17T01:19:15.919Z,996.93
2023-11-17T01:20:15.889Z,996.93
2023-11-17T01:21:15.886Z,996.96
2023-11-17T01:22:15.949Z,997.01
2023-11-17T01:23:15.891Z,997.07
2023-11-17T01:24:15.862Z,997.09
2023-11-17T01:25:15.890Z,997.16
2023-11-17T01:26:15.800Z,997.13
2023-11-17T01:27:15.825Z,997.16
2023-11-17T01:28:15.858Z,997.22
2023-11-17T01:29:15.783Z,997.25
2023-11-17T01:30:15.810Z,997.31
2023-11-17T01:31:15.758Z,997.28
2023-11-17T01:32:15.741Z,997.28
2023-11-17T01:33:15.718Z,997.37
2023-11-17T01:34:15.796Z,997.42
2023-11-17T01:35:15.694Z,997.41
2023-11-17T01:36:15.682Z,997.43
2023-11-17T01:37:15.736Z,997.45
2023-11-17T01:38:15.652Z,997.42
2023-11-17T01:39:15.679Z,997.50
2023-11-17T01:40:15.651Z,997.50
2023-11-17T01:41:15.645Z,997.52
2023-11-17T01:42:15.604Z,997.58
2023-11-17T01:43:15.611Z,997.53
2023-11-17T01:44:15.577Z,997.58
2023-11-17T01:45:15.640Z,997.59
2023-11-17T01:46:15.587Z,997.54
2023-11-17T01:47:15.552Z,997.54
2023-11-17T01:48:15.534Z,997.56
2023-11-17T01:49:15.560Z,997.60
2023-11-17T01:50:15.685Z,997.59
2023-11-17T01:51:15.557Z,997.59
2023-11-17T01:52:15.536Z,997.61
2023-11-17T01:53:15.462Z,997.61
2023-11-17T01:54:15.444Z,997.61
2023-11-17T01:55:15.604Z,997.59
2023-11-17T01:56:15.422Z,997.63
2023-11-17T01:57:15.429Z,997.65
2023-11-17T01:58:15.435Z,997.63
2023-11-17T01:59:15.423Z,997.66
2023-11-17T02:00:15.953Z,997.65
2023-11-17T02:01:15.488Z,997.68
2023-11-17T02:02:15.400Z,997.66
2023-11-17T02:03:15.453Z,997.68
2023-11-17T02:04:15.400Z,997.70
2023-11-17T02:05:15.364Z,997.67
2023-11-17T02:06:15.283Z,997.67
2023-11-17T02:07:15.273Z,997.67
2023-11-17T02:08:15.303Z,997.72
2023-11-17T02:09:15.368Z,997.73
2023-11-17T02:10:15.277Z,997.72
2023-11-17T02:11:15.536Z,997.75
2023-11-17T02:12:15.209Z,997.75
2023-11-17T02:13:15.262Z,997.72
2023-11-17T02:14:15.258Z,997.73
2023-11-17T02:15:15.200Z,997.70
2023-11-17T02:16:15.190Z,997.71
2023-11-17T02:17:15.201Z,997.70
2023-11-17T02:18:15.172Z,997.70
2023-11-17T02:19:15.168Z,997.67
2023-11-17T02:20:15.120Z,997.67
2023-11-17T02:21:15.103Z,997.67
2023-11-17T02:22:15.121Z,997.67
2023-11-17T02:23:15.107Z,997.72
2023-11-17T02:24:15.057Z,997.75
2023-11-17T02:25:15.120Z,997.72
2023-11-17T02:26:15.043Z,997.71
2023-11-17T02:27:15.131Z,997.77
2023-11-17T02:28:15.059Z,997.79
2023-11-17T02:29:15.017Z,997.82
2023-11-17T02:30:14.996Z,997.82
2023-11-17T02:31:15.058Z,997.87
2023-11-17T02:32:14.961Z,997.86
2023-11-17T02:33:14.952Z,997.90
2023-11-17T02:34:14.959Z,997.90
2023-11-17T02:35:14.929Z,997.86
2023-11-17T02:36:14.907Z,998.00
2023-11-17T02:37:14.940Z,997.95
2023-11-17T02:38:14.860Z,997.95
2023-11-17T02:39:15.201Z,997.99
2023-11-17T02:40:14.851Z,997.96
2023-11-17T02:41:14.843Z,997.99
2023-11-17T02:42:14.846Z,997.90
2023-11-17T02:43:14.847Z,997.99
2023-11-17T02:44:14.817Z,997.95
2023-11-17T02:45:14.783Z,997.99
2023-11-17T02:46:14.845Z,998.05
2023-11-17T02:47:14.801Z,998.00
2023-11-17T02:48:21.892Z,998.03
2023-11-17T02:49:15.752Z,998.13
2023-11-17T02:50:14.725Z,998.12
2023-11-17T02:51:14.745Z,998.14
2023-11-17T02:52:14.785Z,998.24
2023-11-17T02:53:14.694Z,998.28
2023-11-17T02:54:14.755Z,998.31
2023-11-17T02:55:14.756Z,998.32
2023-11-17T02:56:14.647Z,998.30
2023-11-17T02:57:14.659Z,998.28
2023-11-17T02:58:14.696Z,998.31
2023-11-17T02:59:14.589Z,998.35
2023-11-17T03:00:14.604Z,998.33
2023-11-17T03:01:14.628Z,998.38
2023-11-17T03:02:14.581Z,998.40
2023-11-17T03:03:14.643Z,998.39
2023-11-17T03:04:14.622Z,998.43
2023-11-17T03:05:14.587Z,998.42
2023-11-17T03:06:14.513Z,998.42
2023-11-17T03:07:14.504Z,998.43
2023-11-17T03:08:14.520Z,998.44
2023-11-17T03:09:14.517Z,998.54
2023-11-17T03:10:14.527Z,998.52
2023-11-17T03:11:14.460Z,998.55
2023-11-17T03:12:14.434Z,998.55
2023-11-17T03:13:14.449Z,998.55
2023-11-17T03:14:14.419Z,998.59
2023-11-17T03:15:14.420Z,998.62
2023-11-17T03:16:14.455Z,998.67
2023-11-17T03:17:14.925Z,998.68
2023-11-17T03:18:14.530Z,998.75
2023-11-17T03:19:14.432Z,998.74
2023-11-17T03:20:14.336Z,998.85
2023-11-17T03:21:14.329Z,998.83
2023-11-17T03:22:14.344Z,998.82
2023-11-17T03:23:14.319Z,998.80
2023-11-17T03:24:14.288Z,998.77
2023-11-17T03:25:14.352Z,998.86
2023-11-17T03:26:14.259Z,998.86
2023-11-17T03:27:14.267Z,998.85
2023-11-17T03:28:14.275Z,998.86
2023-11-17T03:29:14.232Z,998.89
2023-11-17T03:30:14.187Z,998.87
2023-11-17T03:32:14.238Z,998.97
2023-11-17T03:33:14.290Z,998.93
2023-11-17T03:34:14.173Z,998.96
2023-11-17T03:35:14.136Z,998.98
2023-11-17T03:36:14.125Z,998.99
2023-11-17T03:37:14.697Z,999.01
2023-11-17T03:38:14.094Z,999.04
2023-11-17T03:39:14.100Z,999.09
2023-11-17T03:40:14.644Z,999.05
2023-11-17T03:41:14.084Z,999.10
2023-11-17T03:42:14.070Z,999.12
2023-11-17T03:43:14.091Z,999.14
2023-11-17T03:44:14.013Z,999.16
2023-11-17T03:45:14.024Z,999.18
2023-11-17T03:46:14.021Z,999.17
2023-11-17T03:47:14.028Z,999.18
2023-11-17T03:48:13.986Z,999.19
2023-11-17T03:49:14.029Z,999.23
2023-11-17T03:50:13.941Z,999.23
2023-11-17T03:51:13.953Z,999.23
2023-11-17T03:52:13.976Z,999.22
2023-11-17T03:53:13.906Z,999.20
2023-11-17T03:54:13.887Z,999.25
2023-11-17T03:55:13.903Z,999.22
2023-11-17T03:56:13.915Z,999.26
2023-11-17T03:57:14.012Z,999.26
2023-11-17T03:58:13.867Z,999.28
2023-11-17T03:59:13.846Z,999.29
2023-11-17T04:00:13.826Z,999.30
2023-11-17T04:01:14.094Z,999.28
2023-11-17T04:02:14.126Z,999.32
2023-11-17T04:03:14.384Z,999.33
2023-11-17T04:04:13.794Z,999.32
2023-11-17T04:05:13.835Z,999.32
2023-11-17T04:06:14.026Z,999.35
2023-11-17T04:07:13.992Z,999.35
2023-11-17T04:08:13.926Z,999.31
2023-11-17T04:09:13.742Z,999.31
2023-11-17T04:10:13.756Z,999.35
2023-11-17T04:11:13.684Z,999.35
2023-11-17T04:12:13.662Z,999.31
2023-11-17T04:13:13.695Z,999.28
2023-11-17T04:14:13.670Z,999.26
2023-11-17T04:15:14.802Z,999.25
2023-11-17T04:16:13.803Z,999.28
2023-11-17T04:17:13.652Z,999.26
2023-11-17T04:18:13.585Z,999.27
2023-11-17T04:19:13.666Z,999.29
2023-11-17T04:20:13.586Z,999.23
2023-11-17T04:21:13.571Z,999.24
2023-11-17T04:22:13.553Z,999.28
2023-11-17T04:23:13.545Z,999.29
2023-11-17T04:24:13.520Z,999.27
2023-11-17T04:25:13.587Z,999.30
2023-11-17T04:26:13.492Z,999.28
2023-11-17T04:27:13.516Z,999.31
2023-11-17T04:28:13.495Z,999.28
2023-11-17T04:29:13.454Z,999.28
2023-11-17T04:30:13.437Z,999.23
2023-11-17T04:31:13.459Z,999.24
2023-11-17T04:32:13.419Z,999.20
2023-11-17T04:33:13.485Z,999.28
2023-11-17T04:34:13.478Z,999.24
2023-11-17T04:35:13.404Z,999.27
2023-11-17T04:36:13.348Z,999.29
2023-11-17T04:37:13.393Z,999.32
2023-11-17T04:38:13.358Z,999.30
2023-11-17T04:39:13.366Z,999.28
2023-11-17T04:40:13.359Z,999.25
2023-11-17T04:41:13.294Z,999.30
2023-11-17T04:42:13.297Z,999.31
2023-11-17T04:43:13.314Z,999.34
2023-11-17T04:44:13.250Z,999.35
2023-11-17T04:45:13.250Z,999.39
2023-11-17T04:46:13.326Z,999.40
2023-11-17T04:47:13.237Z,999.43
2023-11-17T04:48:13.205Z,999.43
2023-11-17T04:49:13.251Z,999.45
2023-11-17T04:50:13.192Z,999.45
2023-11-17T04:51:13.172Z,999.47
2023-11-17T04:52:13.205Z,999.48
2023-11-17T04:53:13.150Z,999.45
2023-11-17T04:54:13.126Z,999.50
2023-11-17T04:55:13.167Z,999.51
2023-11-17T04:56:13.132Z,999.52
2023-11-17T04:57:13.089Z,999.56
2023-11-17T04:58:13.117Z,999.59
2023-11-17T04:59:13.064Z,999.57
2023-11-17T05:00:13.049Z,999.64
2023-11-17T05:01:13.148Z,999.59
2023-11-17T05:02:13.065Z,999.62
2023-11-17T05:03:13.094Z,999.62
2023-11-17T05:04:13.080Z,999.61
2023-11-17T05:05:13.064Z,999.60
2023-11-17T05:06:12.999Z,999.58
2023-11-17T05:07:12.992Z,999.60
2023-11-17T05:08:12.960Z,999.59
2023-11-17T05:09:12.927Z,999.63
2023-11-17T05:10:13.050Z,999.64
2023-11-17T05:11:12.908Z,999.64
2023-11-17T05:12:12.923Z,999.64
2023-11-17T05:13:12.874Z,999.67
2023-11-17T05:14:12.927Z,999.69
2023-11-17T05:15:12.911Z,999.72
2023-11-17T05:16:12.944Z,999.69
2023-11-17T05:17:12.928Z,999.67
2023-11-17T05:18:12.810Z,999.70
2023-11-17T05:19:12.815Z,999.72
2023-11-17T05:20:12.811Z,999.70
2023-11-17T05:21:12.796Z,999.71
2023-11-17T05:22:12.793Z,999.69
2023-11-17T05:23:12.740Z,999.71
2023-11-17T05:24:12.742Z,999.69
2023-11-17T05:25:12.835Z,999.72
2023-11-17T05:26:12.731Z,999.80
2023-11-17T05:27:12.696Z,999.76
2023-11-17T05:28:12.728Z,999.84
2023-11-17T05:29:12.663Z,999.86
2023-11-17T05:30:12.655Z,999.90
2023-11-17T05:31:12.706Z,999.91
2023-11-17T05:32:12.664Z,999.88
2023-11-17T05:33:12.694Z,999.89
2023-11-17T05:34:12.683Z,999.89
2023-11-17T05:35:12.598Z,999.88
2023-11-17T05:36:12.600Z,999.83
2023-11-17T05:37:12.593Z,999.82
2023-11-17T05:38:12.596Z,999.82
2023-11-17T05:39:12.529Z,999.80
2023-11-17T05:40:12.718Z,999.84
2023-11-17T05:41:12.511Z,999.78
2023-11-17T05:42:12.494Z,999.82
2023-11-17T05:43:12.562Z,999.80
2023-11-17T05:44:12.490Z,999.86
2023-11-17T05:45:12.455Z,999.84
2023-11-17T05:46:12.533Z,999.84
2023-11-17T05:47:12.434Z,999.86
2023-11-17T05:48:12.514Z,999.88
2023-11-17T05:49:12.454Z,999.86
2023-11-17T05:50:12.433Z,999.93
2023-11-17T05:51:12.386Z,999.96
2023-11-17T05:52:12.444Z,999.95
2023-11-17T05:53:12.371Z,999.95
2023-11-17T05:54:12.385Z,999.97
2023-11-17T05:55:12.617Z,1000.01
2023-11-17T05:56:12.581Z,1000.06
2023-11-17T05:57:12.348Z,1000.05
2023-11-17T05:58:12.337Z,1000.07
2023-11-17T05:59:12.380Z,1000.09
2023-11-17T06:00:12.420Z,1000.10
2023-11-17T06:01:12.334Z,1000.14
2023-11-17T06:02:12.328Z,1000.15
2023-11-17T06:03:12.247Z,1000.20
2023-11-17T06:04:12.332Z,1000.15
2023-11-17T06:05:12.224Z,1000.18
2023-11-17T06:06:12.262Z,1000.20
2023-11-17T06:07:12.244Z,1000.21
2023-11-17T06:08:12.190Z,1000.25
2023-11-17T06:09:12.170Z,1000.18
2023-11-17T06:10:12.279Z,1000.20
2023-11-17T06:11:12.198Z,1000.20
2023-11-17T06:12:12.116Z,1000.22
2023-11-17T06:13:12.219Z,1000.21
2023-11-17T06:14:12.092Z,1000.20
2023-11-17T06:15:12.101Z,1000.23
2023-11-17T06:16:12.155Z,1000.25
2023-11-17T06:17:12.147Z,1000.25
2023-11-17T06:18:12.092Z,1000.24
2023-11-17T06:19:12.063Z,1000.25
2023-11-17T06:20:12.034Z,1000.23
2023-11-17T06:21:12.013Z,1000.22
2023-11-17T06:22:12.056Z,1000.21
2023-11-17T06:23:11.981Z,1000.23
2023-11-17T06:24:11.949Z,1000.26
2023-11-17T06:25:12.032Z,1000.27
2023-11-17T06:26:11.954Z,1000.27
2023-11-17T06:27:11.996Z,1000.26
2023-11-17T06:28:11.906Z,1000.23
2023-11-17T06:29:11.918Z,1000.36
2023-11-17T06:30:11.920Z,1000.36
2023-11-17T06:31:11.933Z,1000.37
2023-11-17T06:32:11.890Z,1000.36
2023-11-17T06:33:11.894Z,1000.41
2023-11-17T06:34:11.868Z,1000.43
2023-11-17T06:35:11.873Z,1000.43
2023-11-17T06:36:11.795Z,1000.42
2023-11-17T06:37:11.815Z,1000.42
2023-11-17T06:38:11.798Z,1000.46
2023-11-17T06:39:12.189Z,1000.48
2023-11-17T06:40:11.924Z,1000.51
2023-11-17T06:41:11.750Z,1000.51
2023-11-17T06:42:11.736Z,1000.55
2023-11-17T06:43:11.764Z,1000.51
2023-11-17T06:44:11.718Z,1000.58
2023-11-17T06:45:11.687Z,1000.52
2023-11-17T06:46:11.749Z,1000.58
2023-11-17T06:47:11.730Z,1000.54
2023-11-17T06:48:11.679Z,1000.61
2023-11-17T06:49:11.664Z,1000.63
2023-11-17T06:50:11.624Z,1000.61
2023-11-17T06:51:11.616Z,1000.70
2023-11-17T06:52:11.602Z,1000.71
2023-11-17T06:53:11.583Z,1000.78
2023-11-17T06:54:11.584Z,1000.73
2023-11-17T06:55:11.605Z,1000.80
2023-11-17T06:56:11.543Z,1000.82
2023-11-17T06:57:11.531Z,1000.78
2023-11-17T06:58:11.598Z,1000.82
2023-11-17T06:59:11.528Z,1000.77
2023-11-17T07:00:11.559Z,1000.78
2023-11-17T07:01:11.532Z,1000.76
2023-11-17T07:02:11.527Z,1000.79
2023-11-17T07:03:11.574Z,1000.74
2023-11-17T07:04:11.501Z,1000.80
2023-11-17T07:05:11.443Z,1000.81
2023-11-17T07:06:11.420Z,1000.87
2023-11-17T07:07:12.178Z,1000.84
2023-11-17T07:08:11.491Z,1000.91
2023-11-17T07:09:11.376Z,1000.91
2023-11-17T07:10:11.399Z,1000.95
2023-11-17T07:11:11.374Z,1001.01
2023-11-17T07:12:11.379Z,1001.00
2023-11-17T07:13:11.349Z,1001.00
2023-11-17T07:14:11.333Z,1001.04
2023-11-17T07:15:11.292Z,1001.09
2023-11-17T07:16:11.403Z,1001.11
2023-11-17T07:17:11.367Z,1001.09
2023-11-17T07:18:11.354Z,1001.13
2023-11-17T07:19:11.255Z,1001.13
2023-11-17T07:20:11.406Z,1001.19
2023-11-17T07:21:11.232Z,1001.20
2023-11-17T07:22:11.256Z,1001.27
2023-11-17T07:23:11.223Z,1001.30
2023-11-17T07:24:11.193Z,1001.26
2023-11-17T07:25:11.224Z,1001.29
2023-11-17T07:26:11.167Z,1001.32
2023-11-17T07:27:11.176Z,1001.33
2023-11-17T07:28:11.252Z,1001.39
2023-11-17T07:29:11.154Z,1001.34
2023-11-17T07:30:11.165Z,1001.38
2023-11-17T07:31:11.242Z,1001.39
2023-11-17T07:32:11.130Z,1001.45
2023-11-17T07:33:11.182Z,1001.36
2023-11-17T07:34:11.089Z,1001.42
2023-11-17T07:35:11.055Z,1001.45
2023-11-17T07:36:11.037Z,1001.46
2023-11-17T07:37:11.027Z,1001.43
2023-11-17T07:38:11.018Z,1001.41
2023-11-17T07:39:11.019Z,1001.48
2023-11-17T07:40:11.441Z,1001.49
2023-11-17T07:41:10.970Z,1001.48
2023-11-17T07:42:10.957Z,1001.53
2023-11-17T07:43:10.978Z,1001.58
2023-11-17T07:44:11.018Z,1001.60
2023-11-17T07:45:10.986Z,1001.70
2023-11-17T07:46:10.989Z,1001.63
2023-11-17T07:47:10.934Z,1001.65
2023-11-17T07:48:10.936Z,1001.64
2023-11-17T07:49:10.889Z,1001.67
2023-11-17T07:50:10.846Z,1001.72
2023-11-17T07:51:10.850Z,1001.73
2023-11-17T07:52:10.860Z,1001.69
2023-11-17T07:53:10.843Z,1001.77
2023-11-17T07:54:10.814Z,1001.75
2023-11-17T07:55:10.791Z,1001.76
2023-11-17T07:56:10.769Z,1001.78
2023-11-17T07:57:10.749Z,1001.82
2023-11-17T07:58:10.833Z,1001.78
2023-11-17T07:59:10.737Z,1001.80
2023-11-17T08:00:10.783Z,1001.76
2023-11-17T08:01:10.882Z,1001.79
2023-11-17T08:02:10.714Z,1001.77
2023-11-17T08:03:10.758Z,1001.84
2023-11-17T08:04:10.850Z,1001.88
2023-11-17T08:05:10.721Z,1001.84
2023-11-17T08:06:10.653Z,1001.77
2023-11-17T08:07:10.854Z,1001.84
2023-11-17T08:08:10.666Z,1001.86
2023-11-17T08:09:10.947Z,1001.87
2023-11-17T08:10:10.732Z,1001.87
2023-11-17T08:11:10.612Z,1001.87
2023-11-17T08:12:10.604Z,1001.80
2023-11-17T08:13:10.662Z,1001.84
2023-11-17T08:14:11.708Z,1001.86
2023-11-17T08:15:10.533Z,1001.90
2023-11-17T08:16:11.191Z,1001.91
2023-11-17T08:17:11.142Z,1001.88
2023-11-17T08:18:10.586Z,1001.91
2023-11-17T08:19:18.673Z,1001.91
2023-11-17T08:20:11.487Z,1001.93
2023-11-17T08:21:10.475Z,1001.93
2023-11-17T08:22:12.197Z,1001.89
2023-11-17T08:23:10.414Z,1001.91
2023-11-17T08:24:10.416Z,1001.90
2023-11-17T08:25:10.432Z,1001.93
2023-11-17T08:26:10.394Z,1001.93
2023-11-17T08:27:10.391Z,1001.95
2023-11-17T08:28:10.401Z,1001.95
2023-11-17T08:29:10.360Z,1002.01
2023-11-17T08:30:10.347Z,1001.94
2023-11-17T08:31:10.752Z,1001.96
2023-11-17T08:32:10.334Z,1002.05
2023-11-17T08:33:10.325Z,1002.02
2023-11-17T08:34:10.346Z,1002.07
2023-11-17T08:35:11.635Z,1002.06
2023-11-17T08:36:10.281Z,1002.08
2023-11-17T08:37:10.312Z,1002.01
2023-11-17T08:38:10.241Z,1002.06
2023-11-17T08:39:10.208Z,1002.09
2023-11-17T08:40:10.543Z,1002.10
2023-11-17T08:41:10.195Z,1002.06
2023-11-17T08:42:10.203Z,1002.05
2023-11-17T08:43:10.201Z,1002.00
2023-11-17T08:44:10.141Z,1002.00
2023-11-17T08:45:10.431Z,1002.04
2023-11-17T08:46:10.207Z,1002.02
2023-11-17T08:47:10.150Z,1002.05
2023-11-17T08:48:10.163Z,1002.02
2023-11-17T08:49:10.137Z,1002.03
2023-11-17T08:50:10.109Z,1002.01
2023-11-17T08:51:10.055Z,1002.12
2023-11-17T08:52:10.116Z,1002.07
2023-11-17T08:53:10.046Z,1002.08
2023-11-17T08:54:10.040Z,1002.09
2023-11-17T08:55:10.046Z,1002.11
2023-11-17T08:56:09.998Z,1002.13
2023-11-17T08:57:09.978Z,1002.10
2023-11-17T08:58:10.012Z,1002.11
2023-11-17T08:59:10.028Z,1002.09
2023-11-17T09:00:09.954Z,1002.15
2023-11-17T09:01:10.001Z,1002.22
2023-11-17T09:02:10.011Z,1002.23
2023-11-17T09:03:09.991Z,1002.31
2023-11-17T09:04:10.020Z,1002.32
2023-11-17T09:05:09.869Z,1002.34
2023-11-17T09:06:09.881Z,1002.32
2023-11-17T09:07:09.873Z,1002.33
2023-11-17T09:08:09.859Z,1002.35
2023-11-17T09:09:20.271Z,1002.40
2023-11-17T09:10:10.876Z,1002.36
2023-11-17T09:11:09.801Z,1002.40
2023-11-17T09:12:09.805Z,1002.40
2023-11-17T09:13:10.066Z,1002.44
2023-11-17T09:14:09.780Z,1002.47
2023-11-17T09:15:09.769Z,1002.48
2023-11-17T09:16:09.801Z,1002.53
2023-11-17T09:17:09.814Z,1002.51
2023-11-17T09:18:09.744Z,1002.50
2023-11-17T09:19:09.701Z,1002.48
2023-11-17T09:20:09.696Z,1002.53
2023-11-17T09:21:09.674Z,1002.53
2023-11-17T09:22:09.780Z,1002.54
2023-11-17T09:23:09.643Z,1002.46
2023-11-17T09:24:09.648Z,1002.49
2023-11-17T09:25:09.641Z,1002.51
2023-11-17T09:26:09.628Z,1002.47
2023-11-17T09:27:09.708Z,1002.49
2023-11-17T09:28:09.623Z,1002.53
2023-11-17T09:29:09.574Z,1002.50
2023-11-17T09:30:09.725Z,1002.46
2023-11-17T09:31:09.595Z,1002.45
2023-11-17T09:32:09.545Z,1002.45
2023-11-17T09:33:09.626Z,1002.44
2023-11-17T09:34:09.621Z,1002.44
2023-11-17T09:35:09.502Z,1002.44
2023-11-17T09:36:09.498Z,1002.41
2023-11-17T09:37:09.485Z,1002.45
2023-11-17T09:38:09.506Z,1002.43
2023-11-17T09:39:09.484Z,1002.45
2023-11-17T09:40:09.478Z,1002.48
2023-11-17T09:41:09.433Z,1002.50
2023-11-17T09:42:09.498Z,1002.44
2023-11-17T09:43:09.424Z,1002.47
2023-11-17T09:44:09.362Z,1002.44
2023-11-17T09:45:09.605Z,1002.43
2023-11-17T09:46:09.428Z,1002.50
2023-11-17T09:47:09.524Z,1002.48
2023-11-17T09:48:09.423Z,1002.43
2023-11-17T09:49:09.438Z,1002.42
2023-11-17T09:50:09.326Z,1002.41
2023-11-17T09:51:09.347Z,1002.38
2023-11-17T09:52:09.271Z,1002.39
2023-11-17T09:53:09.268Z,1002.38
2023-11-17T09:54:09.268Z,1002.43
2023-11-17T09:55:09.306Z,1002.40
2023-11-17T09:56:09.205Z,1002.39
2023-11-17T09:57:09.210Z,1002.42
2023-11-17T09:58:09.479Z,1002.40
2023-11-17T09:59:09.341Z,1002.42
2023-11-17T10:00:09.149Z,1002.37
2023-11-17T10:01:09.275Z,1002.41
2023-11-17T10:02:09.190Z,1002.45
2023-11-17T10:03:09.189Z,1002.41
2023-11-17T10:04:09.322Z,1002.39
2023-11-17T10:05:09.079Z,1002.39
2023-11-17T10:06:09.078Z,1002.38
2023-11-17T10:07:09.101Z,1002.41
2023-11-17T10:08:09.071Z,1002.41
2023-11-17T10:09:09.076Z,1002.39
2023-11-17T10:10:09.070Z,1002.43
2023-11-17T10:11:09.029Z,1002.39
2023-11-17T10:12:08.990Z,1002.35
2023-11-17T10:13:09.030Z,1002.33
2023-11-17T10:14:09.088Z,1002.28
2023-11-17T10:15:08.993Z,1002.29
2023-11-17T10:16:09.182Z,1002.35
2023-11-17T10:17:09.075Z,1002.31
2023-11-17T10:18:09.169Z,1002.33
2023-11-17T10:19:08.954Z,1002.40
2023-11-17T10:20:08.893Z,1002.39
2023-11-17T10:21:08.877Z,1002.50
2023-11-17T10:22:08.933Z,1002.34
2023-11-17T10:23:08.891Z,1002.39
2023-11-17T10:24:08.840Z,1002.34
2023-11-17T10:25:08.914Z,1002.36
2023-11-17T10:26:08.827Z,1002.30
2023-11-17T10:27:08.860Z,1002.36
2023-11-17T10:28:08.853Z,1002.34
2023-11-17T10:29:08.822Z,1002.35
2023-11-17T10:30:08.841Z,1002.31
2023-11-17T10:31:08.786Z,1002.31
2023-11-17T10:32:23.026Z,1002.32
2023-11-17T10:33:14.892Z,1002.32
2023-11-17T10:34:09.791Z,1002.29
2023-11-17T10:35:08.724Z,1002.33
2023-11-17T10:36:08.671Z,1002.36
2023-11-17T10:37:08.684Z,1002.35
2023-11-17T10:38:08.645Z,1002.34
2023-11-17T10:39:08.684Z,1002.37
2023-11-17T10:40:12.856Z,1002.34
2023-11-17T10:41:09.623Z,1002.38
2023-11-17T10:42:08.752Z,1002.40
2023-11-17T10:43:08.904Z,1002.41
2023-11-17T10:44:08.582Z,1002.42
2023-11-17T10:45:08.544Z,1002.34
2023-11-17T10:46:08.640Z,1002.42
2023-11-17T10:47:08.570Z,1002.42
2023-11-17T10:48:08.565Z,1002.43
2023-11-17T10:49:08.657Z,1002.36
2023-11-17T10:50:08.504Z,1002.39
2023-11-17T10:51:08.480Z,1002.40
2023-11-17T10:52:08.484Z,1002.43
2023-11-17T10:53:08.466Z,1002.43
2023-11-17T10:54:08.435Z,1002.42
2023-11-17T10:55:08.529Z,1002.39
2023-11-17T10:56:08.412Z,1002.34
2023-11-17T10:57:08.408Z,1002.35
2023-11-17T10:58:08.425Z,1002.38
2023-11-17T10:59:08.389Z,1002.36
2023-11-17T11:00:08.410Z,1002.35
2023-11-17T11:01:08.410Z,1002.34
2023-11-17T11:02:08.426Z,1002.35
2023-11-17T11:03:08.394Z,1002.32
2023-11-17T11:04:08.444Z,1002.33
2023-11-17T11:05:08.295Z,1002.34
2023-11-17T11:06:08.286Z,1002.27
2023-11-17T11:07:08.264Z,1002.23
2023-11-17T11:08:08.241Z,1002.28
2023-11-17T11:09:08.322Z,1002.31
2023-11-17T11:10:08.292Z,1002.29
2023-11-17T11:11:08.240Z,1002.24
2023-11-17T11:12:08.216Z,1002.19
2023-11-17T11:13:08.396Z,1002.25
2023-11-17T11:14:08.171Z,1002.24
2023-11-17T11:15:08.179Z,1002.26
2023-11-17T11:16:08.219Z,1002.25
2023-11-17T11:17:08.355Z,1002.31
2023-11-17T11:18:08.128Z,1002.24
2023-11-17T11:19:08.154Z,1002.28
2023-11-17T11:20:21.622Z,1002.22
2023-11-17T11:21:09.062Z,1002.25
2023-11-17T11:22:08.131Z,1002.24
2023-11-17T11:23:08.115Z,1002.24
2023-11-17T11:24:08.038Z,1002.28
2023-11-17T11:25:08.065Z,1002.27
2023-11-17T11:26:08.081Z,1002.27
2023-11-17T11:27:08.118Z,1002.29
2023-11-17T11:28:08.248Z,1002.28
2023-11-17T11:29:07.995Z,1002.34
2023-11-17T11:30:07.955Z,1002.33
2023-11-17T11:31:08.050Z,1002.32
2023-11-17T11:32:07.998Z,1002.32
2023-11-17T11:33:08.018Z,1002.36
2023-11-17T11:34:07.991Z,1002.34
2023-11-17T11:35:07.944Z,1002.31
2023-11-17T11:36:07.879Z,1002.33
2023-11-17T11:37:08.419Z,1002.34
2023-11-17T11:38:08.015Z,1002.40
2023-11-17T11:39:08.112Z,1002.32
2023-11-17T11:40:08.051Z,1002.37
2023-11-17T11:41:07.811Z,1002.37
2023-11-17T11:42:08.740Z,1002.37
2023-11-17T11:43:08.322Z,1002.43
2023-11-17T11:44:11.218Z,1002.35
2023-11-17T11:45:13.460Z,1002.37
2023-11-17T11:46:07.996Z,1002.37
2023-11-17T11:47:07.960Z,1002.36
2023-11-17T11:48:07.782Z,1002.42
2023-11-17T11:49:08.034Z,1002.37
2023-11-17T11:50:07.890Z,1002.41
2023-11-17T11:51:07.721Z,1002.42
2023-11-17T11:52:08.811Z,1002.45
2023-11-17T11:53:07.654Z,1002.44
2023-11-17T11:54:07.667Z,1002.45
2023-11-17T11:55:07.780Z,1002.47
2023-11-17T11:56:07.606Z,1002.38
2023-11-17T11:57:07.627Z,1002.46
2023-11-17T11:58:07.600Z,1002.38
2023-11-17T11:59:07.592Z,1002.42
2023-11-17T12:00:07.588Z,1002.38
2023-11-17T12:01:07.556Z,1002.44
2023-11-17T12:02:07.586Z,1002.45
2023-11-17T12:03:07.625Z,1002.49
2023-11-17T12:04:07.681Z,1002.46
2023-11-17T12:05:07.559Z,1002.47
2023-11-17T12:06:07.634Z,1002.46
2023-11-17T12:07:07.516Z,1002.54
2023-11-17T12:08:07.449Z,1002.50
2023-11-17T12:09:07.642Z,1002.45
2023-11-17T12:10:07.466Z,1002.46
2023-11-17T12:11:07.476Z,1002.47
2023-11-17T12:12:07.385Z,1002.46
2023-11-17T12:13:07.392Z,1002.47
2023-11-17T12:14:07.379Z,1002.41
2023-11-17T12:15:07.375Z,1002.41
2023-11-17T12:16:07.373Z,1002.44
2023-11-17T12:17:07.398Z,1002.45